Flight Track Log - Related Links

Times and Time Zones

All times are in EDT time to prevent confusion due to time zone crossing. See the SWA397 flight status page for this flight to view local times or setup timezone preferences in your user account.

Time Position Orientation Groundspeed Altitude Reporting Facility
EDT Latitude Longitude Course Direction KTS km/h feet Rate Location/Type
Sun 07:17:36 39.1667 -76.7833 211° Southwest 225 417 4,900  Level Potomac TRACON
Sun 07:18:30 39.2000 -76.8500 303° West 244 452 9,000 4,500 Climbing Potomac TRACON
Sun 07:19:24 39.2167 -76.9333 284° West 259 480 13,000 3,421 Climbing Potomac TRACON
Sun 07:20:24 39.2167 -77.0333 270° West 314 581 15,500 2,674 Climbing Potomac TRACON
Sun 07:22:00 39.1065 -77.2265 211° Southwest  Level FlightAware Approximate
Sun 07:22:28 39.1272 -77.2317 240° Southwest 324 600 21,200  Level Washington Center
Sun 07:23:28 39.0922 -77.3514 249° West 341 631 23,000 1,500 Climbing Washington Center
Sun 07:24:28 39.0714 -77.4844 259° West 363 673 24,200 2,150 Climbing Washington Center
Sun 07:25:28 39.0547 -77.6150 261° West 375 695 27,300 2,700 Climbing Washington Center
Sun 07:26:28 39.0314 -77.7589 258° West 375 695 29,600 2,350 Climbing Washington Center
Sun 07:27:28 39.0122 -77.8944 260° West 381 705 32,000 2,300 Climbing Washington Center
Sun 07:28:28 38.9908 -78.0247 258° West 386 715 34,200 2,000 Climbing Washington Center
Sun 07:29:28 38.9694 -78.1547 258° West 386 715 36,000 1,650 Climbing Washington Center
Sun 07:30:28 38.9625 -78.2881 266° West 386 715 37,500 1,000 Climbing Washington Center
Sun 07:31:28 38.9675 -78.4244 273° West 386 715 38,000 250 Climbing Washington Center
Sun 07:32:28 38.9706 -78.5633 272° West 386 715 38,000  Level Washington Center
Sun 07:33:28 38.9756 -78.6997 273° West 386 715 38,000  Level Washington Center
Sun 07:34:28 38.9800 -78.8386 272° West 386 715 38,000  Level Washington Center
Sun 07:35:28 38.9844 -78.9778 272° West 386 715 38,000  Level Washington Center
Sun 07:36:28 38.9869 -79.1169 271° West 386 715 38,000  Level Washington Center
Sun 07:37:29 38.9889 -79.2558 271° West 386 715 38,000  Level Washington Center
Sun 07:38:28 38.9950 -79.3950 273° West 386 715 38,000  Level Washington Center
Sun 07:39:28 38.9989 -79.5342 272° West 386 715 38,000  Level Washington Center
Sun 07:40:28 39.0000 -79.6839 271° West 400 740 38,000  Level Washington Center
Sun 07:41:28 39.0017 -79.8200 271° West 400 740 38,000  Level Washington Center
Sun 07:42:28 39.0033 -79.9458 271° West 405 750 38,000 330 Level Washington Center
Sun 07:44:30 39.0078 -80.2286 271° West 389 721 39,000 557 Climbing Indianapolis Center
Sun 07:45:31 39.0100 -80.3667 271° West 386 715 39,700 492 Climbing Indianapolis Center
Sun 07:46:32 39.0114 -80.5069 271° West 390 723 40,000 148 Climbing Indianapolis Center
Sun 07:47:33 39.0136 -80.6481 271° West 394 729 40,000  Level Indianapolis Center
Sun 07:48:34 39.0156 -80.7878 271° West 393 727 40,000  Level Indianapolis Center
Sun 07:49:35 39.0592 -80.9194 293° West 406 752 40,000  Level Indianapolis Center
Sun 07:50:36 39.1114 -81.0489 298° West 409 758 40,000  Level Indianapolis Center
Sun 07:51:37 39.1644 -81.1764 298° West 407 753 40,000  Level Indianapolis Center
Sun 07:52:38 39.2264 -81.3283 298° West 403 747 40,000  Level Indianapolis Center
Sun 07:53:39 39.2783 -81.4553 298° West 402 745 40,000  Level Indianapolis Center
Sun 07:54:40 39.3233 -81.5856 294° West 401 742 40,000  Level Indianapolis Center
Sun 07:55:41 39.3403 -81.7250 279° West 396 734 40,000  Level Indianapolis Center
Sun 07:56:43 39.3589 -81.8647 280° West 396 734 40,000  Level Indianapolis Center
Sun 07:57:44 39.3750 -82.0056 278° West 397 735 40,000  Level Indianapolis Center
Sun 07:58:45 39.3911 -82.1469 278° West 397 735 40,000  Level Indianapolis Center
Sun 07:59:46 39.4086 -82.2892 279° West 399 739 40,000  Level Indianapolis Center
Sun 08:00:48 39.4247 -82.4308 278° West 400 740 40,000  Level Indianapolis Center
Sun 08:01:49 39.4414 -82.5764 278° West 399 739 40,000  Level Indianapolis Center
Sun 08:02:50 39.4586 -82.7175 279° West 396 734 40,000  Level Indianapolis Center
Sun 08:03:51 39.4764 -82.8844 278° West 396 734 40,000  Level Indianapolis Center
Sun 08:04:52 39.4931 -83.0267 279° West 395 732 40,000  Level Indianapolis Center
Sun 08:05:53 39.5083 -83.1700 278° West 397 735 40,000  Level Indianapolis Center
Sun 08:06:54 39.5250 -83.3131 279° West 396 734 40,000  Level Indianapolis Center
Sun 08:07:55 39.5397 -83.4561 278° West 395 732 40,000  Level Indianapolis Center
Sun 08:08:57 39.5553 -83.6000 278° West 396 734 40,000  Level Indianapolis Center
Sun 08:09:58 39.5700 -83.7433 278° West 395 732 40,000  Level Indianapolis Center
Sun 08:10:59 39.5722 -83.8875 271° West 395 732 40,000  Level Indianapolis Center
Sun 08:12:00 39.5683 -84.0308 268° West 393 727 40,000  Level Indianapolis Center
Sun 08:13:01 39.5644 -84.1750 268° West 395 732 40,000  Level Indianapolis Center
Sun 08:14:02 39.5600 -84.3183 268° West 395 732 40,000  Level Indianapolis Center
Sun 08:15:03 39.5564 -84.4625 268° West 394 729 40,000  Level Indianapolis Center
Sun 08:16:05 39.5522 -84.6064 268° West 397 735 40,000  Level Indianapolis Center
Sun 08:17:06 39.5472 -84.7497 267° West 396 734 40,000  Level Indianapolis Center
Sun 08:18:07 39.5431 -84.8939 268° West 397 735 40,000  Level Indianapolis Center
Sun 08:19:08 39.5372 -85.0372 267° West 395 732 40,000  Level Indianapolis Center
Sun 08:20:09 39.5308 -85.1808 267° West 396 734 40,000  Level Indianapolis Center
Sun 08:21:10 39.5264 -85.3250 268° West 398 737 40,000  Level Indianapolis Center
Sun 08:22:11 39.5197 -85.4675 267° West 394 729 40,000  Level Indianapolis Center
Sun 08:23:12 39.5142 -85.6075 267° West 396 734 40,000  Level Indianapolis Center
Sun 08:24:14 39.5075 -85.7508 267° West 397 735 40,000  Level Indianapolis Center
Sun 08:25:15 39.5025 -85.8942 267° West 397 735 40,000  Level Indianapolis Center
Sun 08:26:16 39.4958 -86.0375 267° West 397 735 40,000  Level Indianapolis Center
Sun 08:27:17 39.4903 -86.1825 267° West 401 742 40,000  Level Indianapolis Center
Sun 08:28:18 39.4833 -86.3253 266° West 399 739 40,000  Level Indianapolis Center
Sun 08:29:19 39.4747 -86.4967 266° West 397 735 40,000  Level Indianapolis Center
Sun 08:30:20 39.4681 -86.6419 267° West 402 745 40,000  Level Indianapolis Center
Sun 08:31:22 39.4603 -86.7833 266° West 398 737 40,000  Level Indianapolis Center
Sun 08:32:23 39.4539 -86.9286 267° West 402 745 40,000  Level Indianapolis Center
Sun 08:33:24 39.4464 -87.0731 266° West 402 745 40,000 -246 Level Indianapolis Center
Sun 08:34:25 39.4386 -87.2178 266° West 402 745 39,500 -738 Descending Indianapolis Center
Sun 08:35:26 39.4303 -87.3622 266° West 402 745 38,500 -934 Descending Indianapolis Center
Sun 08:36:27 39.4233 -87.5042 266° West 398 737 37,600 -1,415 Descending Indianapolis Center
Sun 08:37:29 39.4147 -87.6489 266° West 402 745 35,600 -2,537 Descending Indianapolis Center
Sun 08:38:30 39.4064 -87.7944 266° West 404 748 32,400 -2,852 Descending Indianapolis Center
Sun 08:39:31 39.3967 -87.9400 265° West 405 750 29,800 -2,541 Descending Indianapolis Center
Sun 08:39:55 39.3953 -87.9947 268° West 398 737 28,800 -1,271 Descending Kansas City Center
Sun 08:40:56 39.3714 -88.1286 257° West 384 711 28,000 -950 Descending Kansas City Center
Sun 08:41:55 39.3367 -88.2633 252° West 388 719 26,900 -1,033 Descending Kansas City Center
Sun 08:42:58 39.3014 -88.3922 251° West 383 710 25,900 -968 Descending Kansas City Center
Sun 08:43:59 39.2661 -88.5189 250° West 377 698 24,900 -1,109 Descending Kansas City Center
Sun 08:44:57 39.2281 -88.6619 251° West 371 687 23,700 -1,091 Descending Kansas City Center
Sun 08:46:00 39.1956 -88.7883 252° West 371 687 22,700 -968 Descending Kansas City Center
Sun 08:47:01 39.1614 -88.9094 250° West 365 676 21,700 -1,024 Descending Kansas City Center
Sun 08:48:03 39.1267 -89.0411 251° West 360 666 20,600 -1,033 Descending Kansas City Center
Sun 08:49:03 39.0939 -89.1611 251° West 357 661 19,600 -968 Descending Kansas City Center
Sun 08:49:36 39.0783 -89.1703 205° Southwest 359 665 19,100 -1,019 Descending FAA TRACON SMA TRACON (SMA)
Sun 08:49:56 39.0681 -89.2172 254° West 354 655 18,700 -1,050 Descending FAA TRACON SMA TRACON (SMA)
Sun 08:50:16 39.0603 -89.2547 255° West 352 652 18,400 -900 Descending FAA TRACON SMA TRACON (SMA)
Sun 08:50:36 39.0522 -89.2919 254° West 351 650 18,100 -1,050 Descending FAA TRACON SMA TRACON (SMA)
Sun 08:50:56 39.0406 -89.3369 252° West 347 642 17,700 -450 Descending FAA TRACON SMA TRACON (SMA)
Sun 08:51:16 39.0311 -89.3728 251° West 344 637 17,800 -293 Climbing FAA TRACON SMA TRACON (SMA)
Sun 08:51:37 39.0242 -89.4097 256° West 345 639 17,500 -1,050 Descending FAA TRACON SMA TRACON (SMA)
Sun 08:51:56 39.0131 -89.4547 252° West 344 637 17,100 -1,077 Descending FAA TRACON SMA TRACON (SMA)
Sun 08:52:16 39.0044 -89.4906 253° West 342 634 16,800 -878 Descending FAA TRACON SMA TRACON (SMA)
Sun 08:52:37 38.9958 -89.5264 253° West 341 631 16,500 -1,050 Descending FAA TRACON SMA TRACON (SMA)
Sun 08:52:56 38.9831 -89.5706 250° West 342 634 16,100 -1,077 Descending FAA TRACON SMA TRACON (SMA)
Sun 08:53:16 38.9722 -89.6058 248° West 343 636 15,800 -1,317 Descending FAA TRACON SMA TRACON (SMA)
Sun 08:53:37 38.9600 -89.6394 245° Southwest 340 629 15,200 -1,500 Descending FAA TRACON SMA TRACON (SMA)
Sun 08:53:56 38.9469 -89.6814 248° West 331 613 14,800 -1,538 Descending FAA TRACON SMA TRACON (SMA)
Sun 08:54:16 38.9353 -89.7133 245° Southwest 323 599 14,200 -1,610 Descending FAA TRACON SMA TRACON (SMA)
Sun 08:54:37 38.9264 -89.7461 251° West 319 591 13,700 -1,773 Descending FAA TRACON SMA TRACON (SMA)
Sun 08:55:00 38.9125 -89.7861 246° West 316 586 12,900 -2,034 Descending FAA TRACON SMA TRACON (SMA)
Sun 08:55:36 38.8931 -89.8503 249° West 316 586 11,700 -1,607 Descending FAA TRACON SMA TRACON (SMA)
Sun 08:55:56 38.8828 -89.8817 247° West 311 576 11,400 -1,050 Descending FAA TRACON SMA TRACON (SMA)
Sun 08:56:16 38.8708 -89.9194 248° West 299 554 11,000 -1,050 Descending FAA TRACON SMA TRACON (SMA)
Sun 08:56:36 38.8617 -89.9483 248° West 289 536 10,700 -1,050 Descending FAA TRACON SMA TRACON (SMA)
Sun 08:56:56 38.8519 -89.9769 246° West 284 526 10,300 -1,500 Descending FAA TRACON SMA TRACON (SMA)
Sun 08:57:16 38.8403 -90.0125 247° West 283 525 9,700 -1,650 Descending FAA TRACON SMA TRACON (SMA)
Sun 08:57:36 38.8314 -90.0408 248° West 281 520 9,200 -1,350 Descending FAA TRACON SMA TRACON (SMA)
Sun 08:57:56 38.8217 -90.0692 246° West 280 518 8,800 -1,500 Descending FAA TRACON SMA TRACON (SMA)
Sun 08:58:16 38.8106 -90.1044 248° West 278 515 8,200 -1,650 Descending FAA TRACON SMA TRACON (SMA)
Sun 08:58:36 38.8019 -90.1322 248° West 274 507 7,700 -900 Descending FAA TRACON SMA TRACON (SMA)
Sun 08:58:56 38.7964 -90.1600 256° West 271 502 7,600 -450 Descending FAA TRACON SMA TRACON (SMA)
Sun 08:59:16 38.8047 -90.1914 289° West 253 468 7,400 -150 Descending FAA TRACON SMA TRACON (SMA)
Sun 08:59:36 38.8144 -90.2125 301° West 229 425 7,500 300 Climbing FAA TRACON SMA TRACON (SMA)
Sun 08:59:56 38.8231 -90.2300 302° West 198 367 7,600 -150 Climbing FAA TRACON SMA TRACON (SMA)
Sun 09:00:16 38.8331 -90.2481 305° West 164 304 7,400 -900 Descending FAA TRACON SMA TRACON (SMA)
Sun 09:00:36 38.8392 -90.2619 299° West 148 274 7,000 -1,650 Descending FAA TRACON SMA TRACON (SMA)
Sun 09:00:56 38.8461 -90.2803 296° West 145 269 6,300 -1,610 Descending FAA TRACON SMA TRACON (SMA)
Sun 09:01:17 38.8522 -90.2944 299° West 148 274 5,900 -1,200 Descending FAA TRACON SMA TRACON (SMA)
Sun 09:01:36 38.8575 -90.3083 296° West 144 267 5,500 -1,538 Descending FAA TRACON SMA TRACON (SMA)
Sun 09:01:56 38.8592 -90.3267 277° West 140 259 4,900 -1,463 Descending FAA TRACON SMA TRACON (SMA)
Sun 09:02:17 38.8533 -90.3392 239° Southwest 137 254 4,500 -1,200 Descending FAA TRACON SMA TRACON (SMA)
Sun 09:02:36 38.8461 -90.3500 229° Southwest 132 245 4,100 -1,385 Descending FAA TRACON SMA TRACON (SMA)
Sun 09:02:56 38.8364 -90.3631 226° Southwest 130 241 3,600 -1,463 Descending FAA TRACON SMA TRACON (SMA)
Sun 09:03:17 38.8289 -90.3731 226° Southwest 130 241 3,100 -1,350 Descending FAA TRACON SMA TRACON (SMA)
Sun 09:03:36 38.8203 -90.3811 216° Southwest 125 232 2,700 -1,231 Descending FAA TRACON SMA TRACON (SMA)
Sun 09:03:56 38.8081 -90.3850 194° South 118 219 2,300 -1,171 Descending FAA TRACON SMA TRACON (SMA)
Sun 09:04:17 38.7989 -90.3861 185° South 112 208 1,900 -750 Descending FAA TRACON SMA TRACON (SMA)
Sun 09:04:36 38.7897 -90.3839 169° South 109 201 1,800 -462 Descending FAA TRACON SMA TRACON (SMA)
Sun 09:04:56 38.7792 -90.3772 154° Southeast 109 201 1,600 -439 Descending FAA TRACON SMA TRACON (SMA)
Sun 09:05:17 38.7722 -90.3683 135° Southeast 112 208 1,500 -450 Descending FAA TRACON SMA TRACON (SMA)
Sun 09:05:36 38.7661 -90.3586 129° Southeast 115 212 1,300 -769 Descending FAA TRACON SMA TRACON (SMA)
Sun 09:05:56 38.7594 -90.3456 123° Southeast 114 211 1,000 -732 Descending FAA TRACON SMA TRACON (SMA)
Sun 09:06:17 38.7542 -90.3350 123° Southeast 116 214 800 -600 Descending FAA TRACON SMA TRACON (SMA)
Sun 09:06:36 38.7500 -90.3264 122° Southeast 118 219 600 -632 Descending FAA TRACON SMA TRACON (SMA)

Login

Don't have an account? Register now (free) for customized features, flight alerts, and more!